Weather at Antonio Rivera Rodriguez Airport

Public forecast

Using degrees Celsius for public forecast. Weather courtesy of forecast.io.

Closest aviation weather report (METAR) to Antonio Rivera Rodriguez Airport

Report is more than 6 hours old.

Closest report is Cyril E. King Airport, 31.9 nm (59.0 km) ENE.

2022/11/14 14:53 (retrieved 2 years ago)

TIST 141453Z 10012KT 10SM SCT027 29/24 A2999

Closest aviation forecast (TAF) to Antonio Rivera Rodriguez Airport

Forecast is more than 12 hours old.

Closest forecast is Cyril E. King Airport, 31.9 nm (59.0 km) ENE.

2023/02/22 18:33 (retrieved 1 year ago)

TAF TIST 221728Z 2218/2318 05017KT P6SM FEW030 SCT040 FM222200 06011KT P6SM VCSH FEW030 SCT060 FM231300 06017KT P6SM SCT030